Latest Weather Observations for Falls Creek

IDV60801

Issued at 8:42 am EST Friday 19 April 2019 (issued every 10 minutes, with the page automatically refreshed every 10 minutes)

About weather observations | Map of weather stations | Latest weather observations for VIC | Other Formats
Station Details ID: 083084 Name: FALLS CREEK Lat: -36.87 Lon: 147.28 Height: 1765.0 m
Data from the previous 72 hours. | See also: Recent months at Falls Creek
Date/Time
EST
Temp
°C
App
Temp
°C
Dew
Point
°C
Rel
Hum
%
Delta-T
°C
Wind Press
QNH
hPa
Press
MSL
hPa
Rain since
9am
mm
Dir  Spd
km/h
Gust
km/h
Spd
kts
Gust
kts
19/08:30am 9.4 3.2 6.1 80 1.7 NNW 28 39 15 21 1030.7 1028.0 0.0
19/08:00am 8.7 2.0 5.8 82 1.5 NNW 30 43 16 23 1030.5 1027.7 0.0
19/07:30am 8.0 1.3 5.6 85 1.2 NNW 30 43 16 23 1030.0 1027.2 0.0
19/07:00am 7.4 1.1 5.7 89 0.8 NNW 28 37 15 20 1029.7 1027.0 0.0
19/06:30am 7.4 0.7 5.5 88 0.9 NNW 30 41 16 22 1029.5 1026.7 0.0
19/06:00am 7.7 1.3 5.3 85 1.2 NNW 28 39 15 21 1029.3 1026.5 0.0
19/05:30am 7.8 0.9 4.7 81 1.5 NNW 30 39 16 21 1029.1 1026.4 0.0
19/05:00am 8.0 1.0 4.0 76 1.9 NNW 30 37 16 20 1029.0 1026.2 0.0
19/04:30am 8.1 1.4 3.4 72 2.2 NNW 28 37 15 20 1028.9 1026.1 0.0
19/04:00am 8.4 1.1 2.6 67 2.7 NNW 30 39 16 21 1028.7 1025.9 0.0
19/03:30am 8.4 1.3 3.3 70 2.4 NNW 30 35 16 19 1028.4 1025.6 0.0
19/03:00am 8.4 1.5 4.4 76 1.9 NNW 30 35 16 19 1028.6 1025.8 0.0
19/02:30am 8.8 2.3 4.6 75 2.1 NNW 28 35 15 19 1029.0 1026.2 0.0
19/02:00am 9.2 2.7 4.6 73 2.3 NNW 28 37 15 20 1029.1 1026.4 0.0
19/01:30am 9.3 2.8 4.7 73 2.3 NNW 28 41 15 22 1029.1 1026.4 0.0
19/01:00am 9.5 2.6 4.7 72 2.4 NNW 30 39 16 21 1029.5 1026.7 0.0
19/12:30am 9.5 3.0 4.5 71 2.5 NNW 28 33 15 18 1029.6 1026.9 0.0
19/12:00am 9.5 3.3 4.5 71 2.5 NNW 26 35 14 19 1029.7 1027.0 0.0
 
Date/Time
EST
Temp
°C
App
Temp
°C
Dew
Point
°C
Rel
Hum
%
Delta-T
°C
Wind Press
QNH
hPa
Press
MSL
hPa
Rain since
9am
mm
Dir  Spd
km/h
Gust
km/h
Spd
kts
Gust
kts
18/11:30pm 9.9 3.7 4.1 67 2.8 NNW 26 39 14 21 1029.7 1027.0 0.0
18/11:00pm 9.8 4.5 4.8 71 2.5 NNW 22 30 12 16 1030.0 1027.2 0.0
18/10:30pm 9.8 3.5 5.6 75 2.1 NNW 28 33 15 18 1029.7 1027.0 0.0
18/10:00pm 9.8 4.7 5.8 76 2.0 NNW 22 30 12 16 1029.9 1027.1 0.0
18/09:30pm 9.8 5.1 6.2 78 1.8 NNW 20 28 11 15 1030.0 1027.2 0.0
18/09:00pm 9.8 5.2 6.3 79 1.8 NNW 20 26 11 14 1029.7 1027.0 0.0
18/08:30pm 9.4 6.1 6.5 82 1.5 N 13 19 7 10 1029.6 1026.9 0.0
18/08:00pm 9.3 5.7 6.6 83 1.4 NNW 15 19 8 10 1029.6 1026.9 0.0
18/07:30pm 9.4 6.1 6.3 81 1.6 N 13 19 7 10 1029.6 1026.9 0.0
18/07:00pm 9.9 6.2 6.3 78 1.8 NNW 15 22 8 12 1029.4 1026.6 0.0
18/06:30pm 10.0 5.5 6.0 76 2.0 NNW 19 26 10 14 1028.9 1026.1 0.0
18/06:00pm 10.0 5.2 5.8 75 2.1 NNW 20 26 11 14 1028.6 1025.8 0.0
18/05:30pm 10.3 4.8 5.9 74 2.3 NNW 24 32 13 17 1028.3 1025.5 0.0
18/05:00pm 10.6 5.2 6.2 74 2.3 NNW 24 33 13 18 1028.2 1025.4 0.0
18/04:30pm 11.1 5.3 6.3 72 2.5 NNW 26 35 14 19 1028.1 1025.3 0.0
18/04:00pm 10.9 4.8 6.5 74 2.3 N 28 37 15 20 1028.0 1025.1 0.0
18/03:30pm 11.5 5.8 6.8 73 2.5 N 26 37 14 20 1027.8 1025.0 0.0
18/03:00pm 10.9 5.6 6.8 76 2.1 N 24 32 13 17 1028.0 1025.1 0.0
18/02:30pm 11.5 5.4 6.8 73 2.5 N 28 41 15 22 1027.8 1025.0 0.0
18/02:00pm 12.7 7.9 7.2 69 2.9 NNW 22 37 12 20 1027.6 1024.8 0.0
18/01:30pm 12.8 7.3 7.5 70 2.8 NNW 26 41 14 22 1027.6 1024.8 0.0
18/01:00pm 13.0 7.3 6.6 65 3.4 NW 26 37 14 20 1027.7 1024.9 0.0
18/12:30pm 13.0 7.3 6.8 66 3.3 NNW 26 41 14 22 1028.0 1025.1 0.0
18/12:00pm 12.2 6.0 6.0 66 3.2 NNW 28 37 15 20 1028.2 1025.4 0.0
18/11:30am 12.2 6.7 5.8 65 3.3 NNW 24 43 13 23 1028.4 1025.6 0.0
18/11:00am 11.1 5.0 5.0 66 3.1 N 26 39 14 21 1028.6 1025.8 0.0
18/10:30am 11.6 6.0 5.5 66 3.1 N 24 37 13 20 1028.7 1025.9 0.0
18/10:00am 10.1 4.3 4.3 67 2.8 NNW 24 33 13 18 1029.0 1026.2 0.0
18/09:30am 9.6 3.0 4.2 69 2.7 NNW 28 39 15 21 1029.0 1026.2 0.0
18/09:00am 10.1 4.3 4.5 68 2.8 N 24 37 13 20 1028.8 1026.0 0.0
18/08:30am 9.3 2.6 3.9 69 2.6 NNW 28 37 15 20 1028.6 1025.8 0.0
18/08:00am 8.4 1.3 3.7 72 2.2 NNW 30 39 16 21 1028.2 1025.4 0.0
18/07:30am 8.0 1.7 3.5 73 2.2 NNW 26 39 14 21 1028.1 1025.3 0.0
18/07:00am 7.9 1.2 3.6 74 2.0 NNW 28 39 15 21 1027.7 1024.9 0.0
18/06:30am 7.8 0.7 3.7 75 2.0 NNW 30 43 16 23 1027.1 1024.3 0.0
18/06:00am 8.0 0.9 3.8 75 2.0 NNW 30 43 16 23 1026.7 1023.8 0.0
18/05:30am 8.1 1.1 4.1 76 1.9 NNW 30 41 16 22 1026.5 1023.7 0.0
18/05:04am 8.4 0.4 4.0 74 2.1 NNW 35 54 19 29 1026.1 1023.2 0.0
18/05:00am 8.2 0.7 4.2 76 1.9 NNW 33 46 18 25 1026.2 1023.3 0.0
18/04:30am 8.3 1.0 4.3 76 2.0 NNW 32 41 17 22 1025.9 1023.0 0.0
18/04:00am 8.5 1.2 4.3 75 2.0 NNW 32 43 17 23 1025.9 1023.0 0.0
18/03:30am 8.9 2.4 4.5 74 2.2 NNW 28 37 15 20 1026.1 1023.2 0.0
18/03:00am 8.8 2.7 4.6 75 2.1 NNW 26 35 14 19 1026.1 1023.2 0.0
18/02:30am 9.0 2.5 4.6 74 2.2 NNW 28 37 15 20 1026.3 1023.4 0.0
18/02:00am 9.1 1.8 4.7 74 2.2 NNW 32 41 17 22 1026.2 1023.3 0.0
18/01:30am 9.3 2.4 4.7 73 2.3 NNW 30 39 16 21 1026.5 1023.7 0.0
18/01:00am 9.6 3.1 4.8 72 2.4 NNW 28 37 15 20 1026.7 1023.8 0.0
18/12:30am 9.8 3.4 5.0 72 2.4 NNW 28 35 15 19 1027.1 1024.3 0.0
18/12:00am 9.8 3.0 5.0 72 2.4 NNW 30 39 16 21 1027.2 1024.4 0.0
 
Date/Time
EST
Temp
°C
App
Temp
°C
Dew
Point
°C
Rel
Hum
%
Delta-T
°C
Wind Press
QNH
hPa
Press
MSL
hPa
Rain since
9am
mm
Dir  Spd
km/h
Gust
km/h
Spd
kts
Gust
kts
17/11:30pm 10.0 3.6 5.2 72 2.4 NNW 28 39 15 21 1027.5 1024.6 0.0
17/11:00pm 10.0 3.2 5.2 72 2.4 NNW 30 39 16 21 1027.5 1024.6 0.0
17/10:30pm 10.1 3.0 5.5 73 2.3 NNW 32 43 17 23 1027.6 1024.8 0.0
17/10:00pm 10.1 4.1 5.5 73 2.3 NNW 26 35 14 19 1027.8 1025.0 0.0
17/09:30pm 10.0 5.2 5.8 75 2.1 NNW 20 28 11 15 1028.4 1025.6 0.0
17/09:00pm 10.0 5.2 5.8 75 2.1 NNW 20 26 11 14 1028.4 1025.6 0.0
17/08:30pm 9.8 5.3 6.0 77 1.9 NNW 19 24 10 13 1028.4 1025.6 0.0
17/08:00pm 9.6 4.7 6.7 82 1.5 NW 22 26 12 14 1028.4 1025.6 0.0
17/07:30pm 9.5 4.2 6.8 83 1.4 NW 24 30 13 16 1028.3 1025.5 0.0
17/07:00pm 9.5 4.2 6.9 84 1.3 NW 24 30 13 16 1028.2 1025.4 0.0
17/06:30pm 9.6 4.3 7.0 84 1.4 NW 24 30 13 16 1027.8 1025.0 0.0
17/06:00pm 9.6 4.1 7.4 86 1.2 NW 26 33 14 18 1027.7 1024.9 0.0
17/05:30pm 9.9 4.8 7.5 85 1.3 NNW 24 33 13 18 1027.4 1024.5 0.0
17/05:00pm 10.9 5.8 7.8 81 1.6 NNW 24 39 13 21 1027.2 1024.4 0.0
17/04:30pm 10.8 5.3 7.7 81 1.7 NNW 26 37 14 20 1027.0 1024.1 0.0
17/04:00pm 12.3 6.9 7.8 74 2.4 NNW 26 37 14 20 1027.0 1024.1 0.0
17/03:30pm 12.3 7.9 7.6 73 2.5 NW 20 30 11 16 1027.2 1024.4 0.0
17/03:00pm 12.9 7.8 7.6 70 2.8 NNW 24 35 13 19 1027.0 1024.1 0.0
17/02:30pm 12.8 8.0 7.5 70 2.8 NNW 22 32 12 17 1027.1 1024.3 0.0
17/02:00pm 13.4 8.8 8.0 70 2.9 NNW 22 32 12 17 1027.4 1024.5 0.0
17/01:30pm 12.0 6.7 6.9 71 2.7 NNW 24 39 13 21 1027.6 1024.8 0.0
17/01:00pm 12.6 6.9 6.9 68 3.0 NNW 26 37 14 20 1028.0 1025.1 0.0
17/12:30pm 12.7 7.4 6.7 67 3.2 NNW 24 37 13 20 1028.2 1025.4 0.0
17/12:00pm 12.9 7.2 6.9 67 3.2 NNW 26 41 14 22 1028.6 1025.8 0.0
17/11:30am 12.6 7.3 6.6 67 3.2 NNW 24 35 13 19 1028.7 1025.9 0.0
17/11:00am 11.8 6.3 5.9 67 3.0 NNW 24 35 13 19 1028.9 1026.1 0.0
17/10:30am 11.5 6.4 6.2 70 2.8 NNW 22 33 12 18 1028.9 1026.1 0.0
17/10:00am 11.2 6.1 5.9 70 2.7 NNW 22 33 12 18 1028.9 1026.1 0.0
17/09:30am 9.6 4.4 5.4 75 2.1 NNW 22 30 12 16 1028.9 1026.1 0.0
17/09:00am 9.2 4.4 5.4 77 1.9 NNW 20 32 11 17 1029.1 1026.4 0.0
17/08:30am 9.1 3.5 5.5 78 1.8 NNW 24 39 13 21 1029.3 1026.5 0.0
17/08:00am 9.0 3.8 5.6 79 1.7 NNW 22 32 12 17 1029.0 1026.2 0.0
17/07:30am 8.9 4.1 5.8 81 1.6 NNW 20 32 11 17 1028.8 1026.0 0.0
17/07:00am 8.9 4.1 5.6 80 1.7 NW 20 26 11 14 1028.4 1025.6 0.0
17/06:30am 8.7 3.9 5.6 81 1.6 NW 20 28 11 15 1028.0 1025.1 0.0
17/06:00am 8.7 4.1 5.4 80 1.6 NW 19 24 10 13 1027.7 1024.9 0.0
17/05:30am 8.9 4.3 5.5 79 1.7 NW 19 24 10 13 1027.8 1025.0 0.0
17/05:00am 8.9 4.0 5.3 78 1.8 NW 20 28 11 15 1027.8 1025.0 0.0
17/04:30am 9.2 4.0 5.4 77 1.9 NW 22 28 12 15 1027.6 1024.8 0.0
17/04:00am 9.4 4.2 5.4 76 2.0 NW 22 30 12 16 1027.7 1024.9 0.0
17/03:30am 9.6 4.0 5.2 74 2.2 NW 24 32 13 17 1027.6 1024.8 0.0
17/03:00am 9.7 4.4 5.1 73 2.3 NW 22 33 12 18 1027.6 1024.8 0.0
17/02:30am 9.7 4.5 5.3 74 2.2 NW 22 30 12 16 1027.8 1025.0 0.0
17/02:00am 9.7 4.5 5.5 75 2.1 NW 22 30 12 16 1028.0 1025.1 0.0
17/01:30am 9.8 5.0 5.6 75 2.1 NNW 20 28 11 15 1028.2 1025.4 0.0
17/01:00am 9.9 5.7 5.5 74 2.2 NNW 17 22 9 12 1028.3 1025.5 0.0
17/12:30am 9.9 5.9 4.9 71 2.5 NNW 15 20 8 11 1028.4 1025.6 0.0
17/12:00am 9.8 5.3 4.0 67 2.8 NW 17 20 9 11 1028.4 1025.6 0.0
 
Date/Time
EST
Temp
°C
App
Temp
°C
Dew
Point
°C
Rel
Hum
%
Delta-T
°C
Wind Press
QNH
hPa
Press
MSL
hPa
Rain since
9am
mm
Dir  Spd
km/h
Gust
km/h
Spd
kts
Gust
kts
16/11:30pm 9.7 6.0 4.7 71 2.5 NW 13 17 7 9 1028.7 1025.9 0.0
16/11:00pm 9.6 5.8 3.8 67 2.8 NW 13 17 7 9 1028.8 1026.0 0.0
16/10:30pm 9.6 6.0 4.8 72 2.4 NW 13 17 7 9 1029.0 1026.2 0.0
16/10:00pm 9.6 5.9 4.4 70 2.5 NW 13 15 7 8 1029.3 1026.5 0.0
16/09:30pm 9.5 6.1 3.9 68 2.7 WNW 11 13 6 7 1029.3 1026.5 0.0
16/09:00pm 9.4 6.0 4.2 70 2.5 WNW 11 13 6 7 1029.1 1026.4 0.0
16/08:30pm 9.7 6.0 4.5 70 2.6 WNW 13 13 7 7 1029.3 1026.5 0.0
16/08:00pm 9.6 5.6 4.8 72 2.4 W 15 17 8 9 1029.1 1026.4 0.0
16/07:30pm 9.9 6.2 4.3 68 2.8 WNW 13 17 7 9 1029.0 1026.2 0.0
16/07:00pm 9.7 6.0 4.7 71 2.5 WNW 13 15 7 8 1028.9 1026.1 0.0
16/06:30pm 9.7 6.4 6.2 79 1.8 WNW 13 15 7 8 1028.7 1025.9 0.0
16/06:00pm 9.8 7.8 6.9 82 1.5 N 7 9 4 5 1028.2 1025.4 0.0
16/05:30pm 11.1 8.7 7.2 77 2.1 NW 9 11 5 6 1028.1 1025.3 0.0
16/05:00pm 11.9 10.1 7.8 76 2.2 NNW 7 11 4 6 1028.2 1025.4 0.0
16/04:30pm 12.8 10.5 7.5 70 2.8 NNW 9 17 5 9 1028.2 1025.4 0.0
16/04:00pm 13.6 11.3 7.6 67 3.2 NW 9 15 5 8 1028.2 1025.4 0.0
16/03:30pm 13.3 10.1 6.9 65 3.4 NW 13 20 7 11 1028.2 1025.4 0.0
16/03:00pm 13.7 11.1 7.9 68 3.1 NNW 11 20 6 11 1028.0 1025.1 0.0
16/02:30pm 13.0 9.4 6.8 66 3.3 NNW 15 24 8 13 1028.0 1025.1 0.0
16/02:00pm 13.3 9.9 7.5 68 3.1 NNW 15 26 8 14 1028.0 1025.1 0.0
16/01:30pm 11.9 7.5 6.6 70 2.8 NNW 19 30 10 16 1028.1 1025.3 0.0
16/01:00pm 11.9 8.2 6.4 69 2.9 NNW 15 22 8 12 1028.4 1025.6 0.0
16/12:30pm 10.9 6.8 6.1 72 2.5 N 17 24 9 13 1028.6 1025.8 0.0
16/12:00pm 10.6 6.5 6.4 75 2.2 NNW 17 24 9 13 1028.9 1026.1 0.0
16/11:30am 10.6 6.5 6.2 74 2.3 NNW 17 26 9 14 1029.1 1026.4 0.0
16/11:00am 10.1 6.3 5.7 74 2.2 NW 15 20 8 11 1029.4 1026.6 0.0
16/10:30am 10.2 6.8 6.0 75 2.2 NNW 13 22 7 12 1029.5 1026.7 0.0
16/10:00am 9.8 6.8 5.8 76 2.0 NW 11 19 6 10 1029.7 1027.0 0.0
16/09:30am 9.8 6.0 5.8 76 2.0 NNW 15 24 8 13 1029.9 1027.1 0.0
16/09:00am 10.0 5.9 6.0 76 2.0 NNW 17 26 9 14 1029.9 1027.1 0.0

Other formats

Comma delimited format used in spreadsheet applications
http://www.bom.gov.au/fwo/IDV60801/IDV60801.94903.axf

JavaScript Object Notation format (JSON) in row-major order
http://www.bom.gov.au/fwo/IDV60801/IDV60801.94903.json

Data quality

Most of these data are generated automatically and are frequently updated. Quality checks on data are not normally performed. It is possible for incorrect values to appear. Refer to information at About Latest Weather Observations and please check the disclaimer before using these data.